sensor_id;sensor_type;location;lat;lon;timestamp;P1;durP1;ratioP1;P2;durP2;ratioP2
20203;SDS011;10261;49.010;12.034;2022-08-01T00:00:41;3.92;;;2.38;;
20203;SDS011;10261;49.010;12.034;2022-08-01T00:01:43;4.03;;;2.42;;
20203;SDS011;10261;49.010;12.034;2022-08-01T00:02:46;3.45;;;2.65;;
20203;SDS011;10261;49.010;12.034;2022-08-01T00:03:49;2.33;;;2.13;;
20203;SDS011;10261;49.010;12.034;2022-08-01T00:04:53;3.05;;;2.40;;
20203;SDS011;10261;49.010;12.034;2022-08-01T00:05:55;2.28;;;1.90;;
20203;SDS011;10261;49.010;12.034;2022-08-01T00:06:58;5.80;;;2.30;;
20203;SDS011;10261;49.010;12.034;2022-08-01T00:08:01;2.88;;;2.63;;
20203;SDS011;10261;49.010;12.034;2022-08-01T00:09:04;2.60;;;2.30;;
20203;SDS011;10261;49.010;12.034;2022-08-01T00:10:07;2.30;;;2.10;;
20203;SDS011;10261;49.010;12.034;2022-08-01T00:11:11;3.58;;;2.20;;
20203;SDS011;10261;49.010;12.034;2022-08-01T00:12:15;6.05;;;3.40;;
20203;SDS011;10261;49.010;12.034;2022-08-01T00:13:18;6.05;;;2.50;;
20203;SDS011;10261;49.010;12.034;2022-08-01T00:14:21;2.47;;;2.28;;
20203;SDS011;10261;49.010;12.034;2022-08-01T00:15:32;2.65;;;2.45;;
20203;SDS011;10261;49.010;12.034;2022-08-01T00:16:35;3.38;;;3.08;;
20203;SDS011;10261;49.010;12.034;2022-08-01T00:17:38;2.80;;;2.60;;
20203;SDS011;10261;49.010;12.034;2022-08-01T00:18:40;3.17;;;2.88;;
20203;SDS011;10261;49.010;12.034;2022-08-01T00:19:43;3.10;;;2.90;;
20203;SDS011;10261;49.010;12.034;2022-08-01T00:20:46;2.65;;;2.45;;
20203;SDS011;10261;49.010;12.034;2022-08-01T00:21:48;3.33;;;2.75;;
20203;SDS011;10261;49.010;12.034;2022-08-01T00:22:52;2.50;;;2.30;;
20203;SDS011;10261;49.010;12.034;2022-08-01T00:23:54;2.95;;;2.55;;
20203;SDS011;10261;49.010;12.034;2022-08-01T00:24:57;2.63;;;2.42;;
20203;SDS011;10261;49.010;12.034;2022-08-01T00:25:59;2.70;;;2.50;;
20203;SDS011;10261;49.010;12.034;2022-08-01T00:27:03;4.00;;;2.85;;
20203;SDS011;10261;49.010;12.034;2022-08-01T00:28:05;4.20;;;2.63;;
20203;SDS011;10261;49.010;12.034;2022-08-01T00:29:09;3.00;;;2.70;;
20203;SDS011;10261;49.010;12.034;2022-08-01T00:30:33;2.97;;;2.78;;
20203;SDS011;10261;49.010;12.034;2022-08-01T00:31:36;3.25;;;2.97;;
20203;SDS011;10261;49.010;12.034;2022-08-01T00:32:38;6.65;;;2.50;;
20203;SDS011;10261;49.010;12.034;2022-08-01T00:33:41;3.20;;;2.90;;
20203;SDS011;10261;49.010;12.034;2022-08-01T00:34:43;4.50;;;2.30;;
20203;SDS011;10261;49.010;12.034;2022-08-01T00:35:46;2.70;;;2.50;;
20203;SDS011;10261;49.010;12.034;2022-08-01T00:36:48;3.65;;;2.60;;
20203;SDS011;10261;49.010;12.034;2022-08-01T00:37:51;3.40;;;2.38;;
20203;SDS011;10261;49.010;12.034;2022-08-01T00:38:53;2.90;;;2.42;;
20203;SDS011;10261;49.010;12.034;2022-08-01T00:39:56;2.30;;;2.10;;
20203;SDS011;10261;49.010;12.034;2022-08-01T00:40:58;5.63;;;2.55;;
20203;SDS011;10261;49.010;12.034;2022-08-01T00:42:05;3.08;;;2.88;;
20203;SDS011;10261;49.010;12.034;2022-08-01T00:43:07;3.05;;;2.60;;
20203;SDS011;10261;49.010;12.034;2022-08-01T00:44:11;6.53;;;3.45;;
20203;SDS011;10261;49.010;12.034;2022-08-01T00:45:14;3.33;;;3.03;;
20203;SDS011;10261;49.010;12.034;2022-08-01T00:46:17;3.55;;;3.25;;
20203;SDS011;10261;49.010;12.034;2022-08-01T00:47:20;4.35;;;3.30;;
20203;SDS011;10261;49.010;12.034;2022-08-01T00:48:22;3.75;;;2.30;;
20203;SDS011;10261;49.010;12.034;2022-08-01T00:49:26;2.90;;;2.55;;
20203;SDS011;10261;49.010;12.034;2022-08-01T00:50:28;4.22;;;2.50;;
20203;SDS011;10261;49.010;12.034;2022-08-01T00:51:33;6.43;;;3.05;;
20203;SDS011;10261;49.010;12.034;2022-08-01T00:52:36;3.45;;;2.38;;
20203;SDS011;10261;49.010;12.034;2022-08-01T00:53:41;3.35;;;2.75;;
20203;SDS011;10261;49.010;12.034;2022-08-01T00:54:52;3.30;;;2.65;;
20203;SDS011;10261;49.010;12.034;2022-08-01T00:55:55;3.47;;;2.65;;
20203;SDS011;10261;49.010;12.034;2022-08-01T00:56:58;3.90;;;2.88;;
20203;SDS011;10261;49.010;12.034;2022-08-01T00:58:01;3.10;;;2.90;;
20203;SDS011;10261;49.010;12.034;2022-08-01T00:59:06;2.90;;;2.70;;
20203;SDS011;10261;49.010;12.034;2022-08-01T01:00:11;2.85;;;2.55;;
20203;SDS011;10261;49.010;12.034;2022-08-01T01:01:15;4.07;;;3.10;;
20203;SDS011;10261;49.010;12.034;2022-08-01T01:02:20;5.75;;;3.20;;
20203;SDS011;10261;49.010;12.034;2022-08-01T01:03:22;2.83;;;2.60;;
20203;SDS011;10261;49.010;12.034;2022-08-01T01:04:45;3.00;;;2.60;;
20203;SDS011;10261;49.010;12.034;2022-08-01T01:05:48;3.25;;;2.97;;
20203;SDS011;10261;49.010;12.034;2022-08-01T01:06:59;3.22;;;2.90;;
20203;SDS011;10261;49.010;12.034;2022-08-01T01:08:08;2.85;;;2.65;;
20203;SDS011;10261;49.010;12.034;2022-08-01T01:09:18;2.95;;;2.75;;
20203;SDS011;10261;49.010;12.034;2022-08-01T01:10:29;2.67;;;2.45;;
20203;SDS011;10261;49.010;12.034;2022-08-01T01:11:36;3.05;;;2.85;;
20203;SDS011;10261;49.010;12.034;2022-08-01T01:12:47;2.50;;;2.17;;
20203;SDS011;10261;49.010;12.034;2022-08-01T01:13:57;8.65;;;3.20;;
20203;SDS011;10261;49.010;12.034;2022-08-01T01:15:07;3.40;;;3.10;;
20203;SDS011;10261;49.010;12.034;2022-08-01T01:16:13;2.90;;;2.55;;
20203;SDS011;10261;49.010;12.034;2022-08-01T01:17:21;3.45;;;2.60;;
20203;SDS011;10261;49.010;12.034;2022-08-01T01:18:49;3.72;;;3.33;;
20203;SDS011;10261;49.010;12.034;2022-08-01T01:19:56;2.75;;;2.55;;
20203;SDS011;10261;49.010;12.034;2022-08-01T01:21:03;3.05;;;2.38;;
20203;SDS011;10261;49.010;12.034;2022-08-01T01:22:30;2.90;;;2.70;;
20203;SDS011;10261;49.010;12.034;2022-08-01T01:23:44;5.57;;;2.80;;
20203;SDS011;10261;49.010;12.034;2022-08-01T01:24:58;2.60;;;2.40;;
20203;SDS011;10261;49.010;12.034;2022-08-01T01:26:21;3.08;;;2.78;;
20203;SDS011;10261;49.010;12.034;2022-08-01T01:27:39;3.03;;;2.75;;
20203;SDS011;10261;49.010;12.034;2022-08-01T01:30:14;3.85;;;3.00;;
20203;SDS011;10261;49.010;12.034;2022-08-01T01:31:17;3.00;;;2.75;;
20203;SDS011;10261;49.010;12.034;2022-08-01T01:32:22;3.53;;;2.30;;
20203;SDS011;10261;49.010;12.034;2022-08-01T01:33:34;2.63;;;2.42;;
20203;SDS011;10261;49.010;12.034;2022-08-01T01:34:48;3.38;;;2.55;;
20203;SDS011;10261;49.010;12.034;2022-08-01T01:35:55;3.08;;;2.78;;
20203;SDS011;10261;49.010;12.034;2022-08-01T01:37:01;2.88;;;2.67;;
20203;SDS011;10261;49.010;12.034;2022-08-01T01:38:07;4.10;;;2.67;;
20203;SDS011;10261;49.010;12.034;2022-08-01T01:39:15;4.65;;;3.15;;
20203;SDS011;10261;49.010;12.034;2022-08-01T01:40:20;2.70;;;2.50;;
20203;SDS011;10261;49.010;12.034;2022-08-01T01:41:24;3.40;;;3.10;;
20203;SDS011;10261;49.010;12.034;2022-08-01T01:42:28;2.90;;;2.70;;
20203;SDS011;10261;49.010;12.034;2022-08-01T01:43:33;2.80;;;2.60;;
20203;SDS011;10261;49.010;12.034;2022-08-01T01:44:38;5.07;;;3.50;;
20203;SDS011;10261;49.010;12.034;2022-08-01T01:45:42;3.45;;;3.13;;
20203;SDS011;10261;49.010;12.034;2022-08-01T01:46:46;4.45;;;2.70;;
20203;SDS011;10261;49.010;12.034;2022-08-01T01:47:49;2.97;;;2.67;;
20203;SDS011;10261;49.010;12.034;2022-08-01T01:48:55;3.45;;;3.15;;
20203;SDS011;10261;49.010;12.034;2022-08-01T01:49:58;2.30;;;2.10;;
20203;SDS011;10261;49.010;12.034;2022-08-01T01:51:04;3.55;;;3.25;;
20203;SDS011;10261;49.010;12.034;2022-08-01T01:52:07;3.65;;;2.45;;
20203;SDS011;10261;49.010;12.034;2022-08-01T01:53:12;4.10;;;3.30;;
20203;SDS011;10261;49.010;12.034;2022-08-01T01:54:17;3.42;;;3.13;;
20203;SDS011;10261;49.010;12.034;2022-08-01T01:55:21;2.97;;;2.78;;
20203;SDS011;10261;49.010;12.034;2022-08-01T01:56:26;2.85;;;2.65;;
20203;SDS011;10261;49.010;12.034;2022-08-01T01:57:31;3.10;;;2.80;;
20203;SDS011;10261;49.010;12.034;2022-08-01T01:58:36;3.53;;;2.85;;
20203;SDS011;10261;49.010;12.034;2022-08-01T01:59:42;2.88;;;2.63;;
20203;SDS011;10261;49.010;12.034;2022-08-01T02:00:48;3.00;;;2.58;;
20203;SDS011;10261;49.010;12.034;2022-08-01T02:01:52;2.72;;;2.53;;
20203;SDS011;10261;49.010;12.034;2022-08-01T02:03:08;3.30;;;3.08;;
20203;SDS011;10261;49.010;12.034;2022-08-01T02:04:12;4.45;;;3.40;;
20203;SDS011;10261;49.010;12.034;2022-08-01T02:05:16;2.85;;;2.65;;
20203;SDS011;10261;49.010;12.034;2022-08-01T02:06:19;3.00;;;2.80;;
20203;SDS011;10261;49.010;12.034;2022-08-01T02:07:24;2.92;;;2.65;;
20203;SDS011;10261;49.010;12.034;2022-08-01T02:08:27;2.83;;;2.58;;
20203;SDS011;10261;49.010;12.034;2022-08-01T02:09:33;5.40;;;3.15;;
20203;SDS011;10261;49.010;12.034;2022-08-01T02:10:36;5.10;;;3.58;;
20203;SDS011;10261;49.010;12.034;2022-08-01T02:11:41;2.67;;;2.47;;
20203;SDS011;10261;49.010;12.034;2022-08-01T02:13:05;3.50;;;3.20;;
20203;SDS011;10261;49.010;12.034;2022-08-01T02:14:08;2.65;;;2.45;;
20203;SDS011;10261;49.010;12.034;2022-08-01T02:15:13;4.55;;;2.60;;
20203;SDS011;10261;49.010;12.034;2022-08-01T02:16:17;3.17;;;2.90;;
20203;SDS011;10261;49.010;12.034;2022-08-01T02:17:22;3.35;;;2.78;;
20203;SDS011;10261;49.010;12.034;2022-08-01T02:18:26;4.28;;;3.33;;
20203;SDS011;10261;49.010;12.034;2022-08-01T02:19:29;3.50;;;3.20;;
20203;SDS011;10261;49.010;12.034;2022-08-01T02:20:34;4.15;;;3.10;;
20203;SDS011;10261;49.010;12.034;2022-08-01T02:21:40;2.50;;;2.30;;
20203;SDS011;10261;49.010;12.034;2022-08-01T02:22:48;3.05;;;2.75;;
20203;SDS011;10261;49.010;12.034;2022-08-01T02:23:53;3.45;;;2.92;;
20203;SDS011;10261;49.010;12.034;2022-08-01T02:25:07;3.35;;;2.88;;
20203;SDS011;10261;49.010;12.034;2022-08-01T02:26:16;2.80;;;2.60;;
20203;SDS011;10261;49.010;12.034;2022-08-01T02:27:22;2.75;;;2.55;;
20203;SDS011;10261;49.010;12.034;2022-08-01T02:28:30;2.83;;;2.63;;
20203;SDS011;10261;49.010;12.034;2022-08-01T02:29:39;3.75;;;3.05;;
20203;SDS011;10261;49.010;12.034;2022-08-01T02:30:46;7.75;;;2.97;;
20203;SDS011;10261;49.010;12.034;2022-08-01T02:31:50;3.05;;;2.85;;
20203;SDS011;10261;49.010;12.034;2022-08-01T02:32:58;3.78;;;2.80;;
20203;SDS011;10261;49.010;12.034;2022-08-01T02:34:04;2.58;;;2.38;;
20203;SDS011;10261;49.010;12.034;2022-08-01T02:35:09;3.60;;;2.65;;
20203;SDS011;10261;49.010;12.034;2022-08-01T02:36:14;2.92;;;2.63;;
20203;SDS011;10261;49.010;12.034;2022-08-01T02:37:33;2.70;;;2.50;;
20203;SDS011;10261;49.010;12.034;2022-08-01T02:38:45;2.80;;;2.60;;
20203;SDS011;10261;49.010;12.034;2022-08-01T02:39:47;6.03;;;3.25;;
20203;SDS011;10261;49.010;12.034;2022-08-01T02:40:54;3.58;;;2.55;;
20203;SDS011;10261;49.010;12.034;2022-08-01T02:42:00;3.13;;;2.80;;
20203;SDS011;10261;49.010;12.034;2022-08-01T02:43:09;3.80;;;2.58;;
20203;SDS011;10261;49.010;12.034;2022-08-01T02:44:14;5.78;;;3.00;;
20203;SDS011;10261;49.010;12.034;2022-08-01T02:45:25;2.92;;;2.60;;
20203;SDS011;10261;49.010;12.034;2022-08-01T02:46:31;3.28;;;2.70;;
20203;SDS011;10261;49.010;12.034;2022-08-01T02:47:38;6.75;;;2.85;;
20203;SDS011;10261;49.010;12.034;2022-08-01T02:48:42;3.35;;;3.05;;
20203;SDS011;10261;49.010;12.034;2022-08-01T02:49:47;3.85;;;2.90;;
20203;SDS011;10261;49.010;12.034;2022-08-01T02:50:54;3.58;;;2.65;;
20203;SDS011;10261;49.010;12.034;2022-08-01T02:51:59;3.05;;;2.85;;
20203;SDS011;10261;49.010;12.034;2022-08-01T02:53:06;2.90;;;2.70;;
20203;SDS011;10261;49.010;12.034;2022-08-01T02:54:11;3.17;;;2.85;;
20203;SDS011;10261;49.010;12.034;2022-08-01T02:55:15;5.15;;;2.65;;
20203;SDS011;10261;49.010;12.034;2022-08-01T02:56:20;2.50;;;2.22;;
20203;SDS011;10261;49.010;12.034;2022-08-01T02:57:24;4.18;;;3.10;;
20203;SDS011;10261;49.010;12.034;2022-08-01T02:58:42;8.23;;;2.25;;
20203;SDS011;10261;49.010;12.034;2022-08-01T02:59:46;5.10;;;2.40;;
20203;SDS011;10261;49.010;12.034;2022-08-01T03:00:50;3.05;;;2.60;;
20203;SDS011;10261;49.010;12.034;2022-08-01T03:01:55;4.30;;;2.45;;
20203;SDS011;10261;49.010;12.034;2022-08-01T03:03:03;2.97;;;2.67;;
20203;SDS011;10261;49.010;12.034;2022-08-01T03:04:08;3.45;;;2.92;;
20203;SDS011;10261;49.010;12.034;2022-08-01T03:05:12;3.10;;;2.80;;
20203;SDS011;10261;49.010;12.034;2022-08-01T03:06:15;3.20;;;2.90;;
20203;SDS011;10261;49.010;12.034;2022-08-01T03:07:20;3.47;;;2.30;;
20203;SDS011;10261;49.010;12.034;2022-08-01T03:08:34;3.38;;;2.35;;
20203;SDS011;10261;49.010;12.034;2022-08-01T03:09:38;2.50;;;2.30;;
20203;SDS011;10261;49.010;12.034;2022-08-01T03:10:44;4.68;;;1.80;;
20203;SDS011;10261;49.010;12.034;2022-08-01T03:11:48;2.50;;;2.25;;
20203;SDS011;10261;49.010;12.034;2022-08-01T03:12:51;3.83;;;2.28;;
20203;SDS011;10261;49.010;12.034;2022-08-01T03:13:54;2.60;;;2.22;;
20203;SDS011;10261;49.010;12.034;2022-08-01T03:14:58;2.30;;;2.10;;
20203;SDS011;10261;49.010;12.034;2022-08-01T03:16:04;5.30;;;2.53;;
20203;SDS011;10261;49.010;12.034;2022-08-01T03:17:08;2.42;;;2.22;;
20203;SDS011;10261;49.010;12.034;2022-08-01T03:18:12;2.40;;;2.20;;
20203;SDS011;10261;49.010;12.034;2022-08-01T03:19:16;2.65;;;2.45;;
20203;SDS011;10261;49.010;12.034;2022-08-01T03:20:21;2.70;;;2.50;;
20203;SDS011;10261;49.010;12.034;2022-08-01T03:21:26;4.60;;;2.00;;
20203;SDS011;10261;49.010;12.034;2022-08-01T03:22:31;3.85;;;1.88;;
20203;SDS011;10261;49.010;12.034;2022-08-01T03:23:35;3.45;;;2.53;;
20203;SDS011;10261;49.010;12.034;2022-08-01T03:24:40;2.95;;;1.98;;
20203;SDS011;10261;49.010;12.034;2022-08-01T03:25:44;2.38;;;2.00;;
20203;SDS011;10261;49.010;12.034;2022-08-01T03:26:47;2.85;;;2.15;;
20203;SDS011;10261;49.010;12.034;2022-08-01T03:27:51;4.57;;;2.25;;
20203;SDS011;10261;49.010;12.034;2022-08-01T03:28:58;2.92;;;2.30;;
20203;SDS011;10261;49.010;12.034;2022-08-01T03:30:07;3.70;;;2.13;;
20203;SDS011;10261;49.010;12.034;2022-08-01T03:31:11;2.35;;;2.15;;
20203;SDS011;10261;49.010;12.034;2022-08-01T03:32:16;2.90;;;2.45;;
20203;SDS011;10261;49.010;12.034;2022-08-01T03:33:21;2.30;;;2.10;;
20203;SDS011;10261;49.010;12.034;2022-08-01T03:34:24;3.15;;;2.30;;
20203;SDS011;10261;49.010;12.034;2022-08-01T03:35:29;4.07;;;2.25;;
20203;SDS011;10261;49.010;12.034;2022-08-01T03:36:35;3.55;;;2.35;;
20203;SDS011;10261;49.010;12.034;2022-08-01T03:37:46;2.10;;;1.90;;
20203;SDS011;10261;49.010;12.034;2022-08-01T03:39:11;2.25;;;2.03;;
20203;SDS011;10261;49.010;12.034;2022-08-01T03:40:17;2.63;;;2.42;;
20203;SDS011;10261;49.010;12.034;2022-08-01T03:41:26;3.40;;;2.22;;
20203;SDS011;10261;49.010;12.034;2022-08-01T03:42:35;3.80;;;2.20;;
20203;SDS011;10261;49.010;12.034;2022-08-01T03:43:40;2.63;;;2.40;;
20203;SDS011;10261;49.010;12.034;2022-08-01T03:44:52;3.72;;;2.10;;
20203;SDS011;10261;49.010;12.034;2022-08-01T03:46:01;4.30;;;2.60;;
20203;SDS011;10261;49.010;12.034;2022-08-01T03:47:08;6.15;;;2.15;;
20203;SDS011;10261;49.010;12.034;2022-08-01T03:48:16;3.13;;;2.92;;
20203;SDS011;10261;49.010;12.034;2022-08-01T03:49:20;2.33;;;2.00;;
20203;SDS011;10261;49.010;12.034;2022-08-01T03:50:25;4.82;;;2.50;;
20203;SDS011;10261;49.010;12.034;2022-08-01T03:51:29;5.05;;;2.38;;
20203;SDS011;10261;49.010;12.034;2022-08-01T03:52:33;3.17;;;2.50;;
20203;SDS011;10261;49.010;12.034;2022-08-01T03:53:39;3.50;;;2.50;;
20203;SDS011;10261;49.010;12.034;2022-08-01T03:54:45;5.43;;;2.30;;
20203;SDS011;10261;49.010;12.034;2022-08-01T03:55:50;3.35;;;2.30;;
20203;SDS011;10261;49.010;12.034;2022-08-01T03:56:55;4.78;;;2.30;;
20203;SDS011;10261;49.010;12.034;2022-08-01T03:57:59;2.17;;;2.00;;
20203;SDS011;10261;49.010;12.034;2022-08-01T03:59:09;2.50;;;2.10;;
20203;SDS011;10261;49.010;12.034;2022-08-01T04:00:12;3.13;;;2.80;;
20203;SDS011;10261;49.010;12.034;2022-08-01T04:01:19;2.20;;;2.00;;
20203;SDS011;10261;49.010;12.034;2022-08-01T04:02:22;2.10;;;2.00;;
20203;SDS011;10261;49.010;12.034;2022-08-01T04:03:27;2.40;;;2.20;;
20203;SDS011;10261;49.010;12.034;2022-08-01T04:04:29;5.43;;;2.28;;
20203;SDS011;10261;49.010;12.034;2022-08-01T04:05:33;3.25;;;2.28;;
20203;SDS011;10261;49.010;12.034;2022-08-01T04:06:36;5.47;;;2.40;;
20203;SDS011;10261;49.010;12.034;2022-08-01T04:07:40;2.80;;;2.60;;
20203;SDS011;10261;49.010;12.034;2022-08-01T04:08:47;2.42;;;2.22;;
20203;SDS011;10261;49.010;12.034;2022-08-01T04:09:57;2.97;;;2.67;;
20203;SDS011;10261;49.010;12.034;2022-08-01T04:10:59;6.60;;;2.30;;
20203;SDS011;10261;49.010;12.034;2022-08-01T04:12:02;4.25;;;2.53;;
20203;SDS011;10261;49.010;12.034;2022-08-01T04:13:12;3.72;;;2.47;;
20203;SDS011;10261;49.010;12.034;2022-08-01T04:14:15;2.78;;;2.20;;
20203;SDS011;10261;49.010;12.034;2022-08-01T04:15:17;3.60;;;2.42;;
20203;SDS011;10261;49.010;12.034;2022-08-01T04:16:21;2.70;;;2.50;;
20203;SDS011;10261;49.010;12.034;2022-08-01T04:17:24;3.03;;;2.42;;
20203;SDS011;10261;49.010;12.034;2022-08-01T04:18:28;2.58;;;2.00;;
20203;SDS011;10261;49.010;12.034;2022-08-01T04:19:30;5.25;;;2.72;;
20203;SDS011;10261;49.010;12.034;2022-08-01T04:20:33;3.97;;;2.85;;
20203;SDS011;10261;49.010;12.034;2022-08-01T04:21:36;2.50;;;2.22;;
20203;SDS011;10261;49.010;12.034;2022-08-01T04:22:39;2.63;;;2.42;;
20203;SDS011;10261;49.010;12.034;2022-08-01T04:23:41;3.10;;;2.40;;
20203;SDS011;10261;49.010;12.034;2022-08-01T04:24:53;2.83;;;2.60;;
20203;SDS011;10261;49.010;12.034;2022-08-01T04:25:59;2.78;;;2.30;;
20203;SDS011;10261;49.010;12.034;2022-08-01T04:27:06;4.10;;;3.00;;
20203;SDS011;10261;49.010;12.034;2022-08-01T04:28:14;3.40;;;2.30;;
20203;SDS011;10261;49.010;12.034;2022-08-01T04:29:18;2.75;;;2.50;;
20203;SDS011;10261;49.010;12.034;2022-08-01T04:30:24;3.13;;;2.65;;
20203;SDS011;10261;49.010;12.034;2022-08-01T04:31:28;3.55;;;2.55;;
20203;SDS011;10261;49.010;12.034;2022-08-01T04:32:33;3.95;;;2.70;;
20203;SDS011;10261;49.010;12.034;2022-08-01T04:33:40;2.80;;;2.60;;
20203;SDS011;10261;49.010;12.034;2022-08-01T04:34:48;4.10;;;2.80;;
20203;SDS011;10261;49.010;12.034;2022-08-01T04:35:51;3.47;;;2.25;;
20203;SDS011;10261;49.010;12.034;2022-08-01T04:37:04;3.05;;;2.30;;
20203;SDS011;10261;49.010;12.034;2022-08-01T04:38:08;3.25;;;2.58;;
20203;SDS011;10261;49.010;12.034;2022-08-01T04:39:14;3.13;;;2.83;;
20203;SDS011;10261;49.010;12.034;2022-08-01T04:40:19;4.78;;;2.70;;
20203;SDS011;10261;49.010;12.034;2022-08-01T04:41:23;2.50;;;2.30;;
20203;SDS011;10261;49.010;12.034;2022-08-01T04:42:26;2.90;;;2.47;;
20203;SDS011;10261;49.010;12.034;2022-08-01T04:43:33;2.40;;;2.20;;
20203;SDS011;10261;49.010;12.034;2022-08-01T04:44:36;2.95;;;2.20;;
20203;SDS011;10261;49.010;12.034;2022-08-01T04:45:39;2.60;;;2.40;;
20203;SDS011;10261;49.010;12.034;2022-08-01T04:46:44;3.97;;;2.80;;
20203;SDS011;10261;49.010;12.034;2022-08-01T04:47:49;5.53;;;2.70;;
20203;SDS011;10261;49.010;12.034;2022-08-01T04:48:54;3.10;;;2.80;;
20203;SDS011;10261;49.010;12.034;2022-08-01T04:49:57;3.85;;;2.25;;
20203;SDS011;10261;49.010;12.034;2022-08-01T04:51:00;5.55;;;2.60;;
20203;SDS011;10261;49.010;12.034;2022-08-01T04:52:03;2.70;;;2.50;;
20203;SDS011;10261;49.010;12.034;2022-08-01T04:53:11;3.08;;;2.65;;
20203;SDS011;10261;49.010;12.034;2022-08-01T04:54:15;6.03;;;2.45;;
20203;SDS011;10261;49.010;12.034;2022-08-01T04:55:17;4.85;;;3.08;;
20203;SDS011;10261;49.010;12.034;2022-08-01T04:56:22;3.05;;;2.45;;
20203;SDS011;10261;49.010;12.034;2022-08-01T04:57:24;4.85;;;3.58;;
20203;SDS011;10261;49.010;12.034;2022-08-01T04:58:27;10.45;;;3.00;;
20203;SDS011;10261;49.010;12.034;2022-08-01T04:59:29;3.97;;;2.75;;
20203;SDS011;10261;49.010;12.034;2022-08-01T05:00:41;5.45;;;3.47;;
20203;SDS011;10261;49.010;12.034;2022-08-01T05:01:47;3.33;;;2.72;;
20203;SDS011;10261;49.010;12.034;2022-08-01T05:02:51;4.25;;;3.22;;
20203;SDS011;10261;49.010;12.034;2022-08-01T05:03:55;5.95;;;3.97;;
20203;SDS011;10261;49.010;12.034;2022-08-01T05:04:57;4.93;;;3.47;;
20203;SDS011;10261;49.010;12.034;2022-08-01T05:06:00;11.32;;;3.75;;
20203;SDS011;10261;49.010;12.034;2022-08-01T05:07:03;4.25;;;3.47;;
20203;SDS011;10261;49.010;12.034;2022-08-01T05:08:06;6.32;;;3.95;;
20203;SDS011;10261;49.010;12.034;2022-08-01T05:09:08;4.97;;;3.55;;
20203;SDS011;10261;49.010;12.034;2022-08-01T05:10:11;6.80;;;3.70;;
20203;SDS011;10261;49.010;12.034;2022-08-01T05:11:13;6.57;;;3.75;;
20203;SDS011;10261;49.010;12.034;2022-08-01T05:12:22;6.03;;;4.18;;
20203;SDS011;10261;49.010;12.034;2022-08-01T05:13:24;7.53;;;4.25;;
20203;SDS011;10261;49.010;12.034;2022-08-01T05:14:27;5.50;;;4.10;;
20203;SDS011;10261;49.010;12.034;2022-08-01T05:15:33;4.25;;;3.60;;
20203;SDS011;10261;49.010;12.034;2022-08-01T05:16:37;5.88;;;4.75;;
20203;SDS011;10261;49.010;12.034;2022-08-01T05:17:39;5.80;;;5.25;;
20203;SDS011;10261;49.010;12.034;2022-08-01T05:18:43;8.63;;;5.43;;
20203;SDS011;10261;49.010;12.034;2022-08-01T05:19:49;7.43;;;4.43;;
20203;SDS011;10261;49.010;12.034;2022-08-01T05:20:51;12.13;;;4.20;;
20203;SDS011;10261;49.010;12.034;2022-08-01T05:21:54;6.40;;;4.07;;
20203;SDS011;10261;49.010;12.034;2022-08-01T05:23:00;11.95;;;5.68;;
20203;SDS011;10261;49.010;12.034;2022-08-01T05:24:04;7.20;;;3.90;;
20203;SDS011;10261;49.010;12.034;2022-08-01T05:25:06;6.15;;;4.40;;
20203;SDS011;10261;49.010;12.034;2022-08-01T05:26:12;9.70;;;5.18;;
20203;SDS011;10261;49.010;12.034;2022-08-01T05:27:15;9.93;;;5.25;;
20203;SDS011;10261;49.010;12.034;2022-08-01T05:28:19;6.65;;;4.30;;
20203;SDS011;10261;49.010;12.034;2022-08-01T05:29:22;8.23;;;4.93;;
20203;SDS011;10261;49.010;12.034;2022-08-01T05:30:26;7.47;;;5.00;;
20203;SDS011;10261;49.010;12.034;2022-08-01T05:31:28;8.93;;;5.85;;
20203;SDS011;10261;49.010;12.034;2022-08-01T05:32:31;6.25;;;5.38;;
20203;SDS011;10261;49.010;12.034;2022-08-01T05:33:34;7.00;;;5.47;;
20203;SDS011;10261;49.010;12.034;2022-08-01T05:34:36;5.28;;;4.78;;
20203;SDS011;10261;49.010;12.034;2022-08-01T05:35:40;5.50;;;5.00;;
20203;SDS011;10261;49.010;12.034;2022-08-01T05:36:49;6.05;;;5.45;;
20203;SDS011;10261;49.010;12.034;2022-08-01T05:37:58;5.50;;;4.95;;
20203;SDS011;10261;49.010;12.034;2022-08-01T05:39:01;5.30;;;4.80;;
20203;SDS011;10261;49.010;12.034;2022-08-01T05:40:03;7.03;;;6.32;;
20203;SDS011;10261;49.010;12.034;2022-08-01T05:41:07;11.43;;;5.78;;
20203;SDS011;10261;49.010;12.034;2022-08-01T05:42:09;5.78;;;4.93;;
20203;SDS011;10261;49.010;12.034;2022-08-01T05:43:12;4.78;;;4.32;;
20203;SDS011;10261;49.010;12.034;2022-08-01T05:44:14;5.75;;;5.18;;
20203;SDS011;10261;49.010;12.034;2022-08-01T05:45:17;11.00;;;5.22;;
20203;SDS011;10261;49.010;12.034;2022-08-01T05:46:20;4.55;;;4.15;;
20203;SDS011;10261;49.010;12.034;2022-08-01T05:47:26;5.68;;;5.05;;
20203;SDS011;10261;49.010;12.034;2022-08-01T05:48:29;4.88;;;4.45;;
20203;SDS011;10261;49.010;12.034;2022-08-01T05:49:31;3.97;;;3.67;;
20203;SDS011;10261;49.010;12.034;2022-08-01T05:50:34;3.90;;;3.60;;
20203;SDS011;10261;49.010;12.034;2022-08-01T05:51:38;6.72;;;4.13;;
20203;SDS011;10261;49.010;12.034;2022-08-01T05:52:41;3.40;;;3.10;;
20203;SDS011;10261;49.010;12.034;2022-08-01T05:53:43;4.40;;;4.00;;
20203;SDS011;10261;49.010;12.034;2022-08-01T05:54:46;4.90;;;4.15;;
20203;SDS011;10261;49.010;12.034;2022-08-01T05:55:48;5.05;;;4.18;;
20203;SDS011;10261;49.010;12.034;2022-08-01T05:56:51;4.93;;;4.53;;
20203;SDS011;10261;49.010;12.034;2022-08-01T05:57:53;4.40;;;4.00;;
20203;SDS011;10261;49.010;12.034;2022-08-01T05:58:56;4.30;;;3.90;;
20203;SDS011;10261;49.010;12.034;2022-08-01T05:59:58;4.10;;;3.80;;
20203;SDS011;10261;49.010;12.034;2022-08-01T06:01:01;4.40;;;4.00;;
20203;SDS011;10261;49.010;12.034;2022-08-01T06:02:04;3.60;;;3.30;;
20203;SDS011;10261;49.010;12.034;2022-08-01T06:03:07;3.63;;;3.28;;
20203;SDS011;10261;49.010;12.034;2022-08-01T06:04:09;4.00;;;3.70;;
20203;SDS011;10261;49.010;12.034;2022-08-01T06:05:12;4.22;;;3.85;;
20203;SDS011;10261;49.010;12.034;2022-08-01T06:06:15;3.80;;;3.40;;
20203;SDS011;10261;49.010;12.034;2022-08-01T06:07:19;3.40;;;3.10;;
20203;SDS011;10261;49.010;12.034;2022-08-01T06:08:22;7.03;;;3.67;;
20203;SDS011;10261;49.010;12.034;2022-08-01T06:09:25;3.58;;;3.28;;
20203;SDS011;10261;49.010;12.034;2022-08-01T06:10:28;4.20;;;3.80;;
20203;SDS011;10261;49.010;12.034;2022-08-01T06:11:30;4.65;;;3.53;;
20203;SDS011;10261;49.010;12.034;2022-08-01T06:12:33;3.78;;;3.47;;
20203;SDS011;10261;49.010;12.034;2022-08-01T06:13:36;6.35;;;4.03;;
20203;SDS011;10261;49.010;12.034;2022-08-01T06:14:49;3.90;;;3.60;;
20203;SDS011;10261;49.010;12.034;2022-08-01T06:15:51;3.95;;;3.58;;
20203;SDS011;10261;49.010;12.034;2022-08-01T06:16:54;4.45;;;4.05;;
20203;SDS011;10261;49.010;12.034;2022-08-01T06:17:56;3.67;;;2.90;;
20203;SDS011;10261;49.010;12.034;2022-08-01T06:19:00;5.47;;;3.30;;
20203;SDS011;10261;49.010;12.034;2022-08-01T06:20:03;3.10;;;2.90;;
20203;SDS011;10261;49.010;12.034;2022-08-01T06:21:07;3.92;;;2.97;;
20203;SDS011;10261;49.010;12.034;2022-08-01T06:22:10;2.95;;;2.75;;
20203;SDS011;10261;49.010;12.034;2022-08-01T06:23:14;3.60;;;3.30;;
20203;SDS011;10261;49.010;12.034;2022-08-01T06:24:33;2.92;;;2.63;;
20203;SDS011;10261;49.010;12.034;2022-08-01T06:25:36;2.75;;;2.55;;
20203;SDS011;10261;49.010;12.034;2022-08-01T06:26:38;2.85;;;2.55;;
20203;SDS011;10261;49.010;12.034;2022-08-01T06:27:41;3.50;;;2.40;;
20203;SDS011;10261;49.010;12.034;2022-08-01T06:28:43;4.00;;;3.45;;